createdAt,value
2022-08-07T00:00:24.599Z,46.56
2022-08-07T00:02:53.813Z,45.45
2022-08-07T00:05:20.464Z,45.54
2022-08-07T00:07:47.191Z,44.72
2022-08-07T00:10:27.316Z,44.07
2022-08-07T00:12:59.825Z,44.99
2022-08-07T00:15:38.203Z,46.45
2022-08-07T00:18:19.220Z,46.84
2022-08-07T00:20:46.758Z,46.65
2022-08-07T00:23:15.360Z,45.88
2022-08-07T00:25:43.598Z,45.37
2022-08-07T00:28:12.488Z,45.22
2022-08-07T00:30:42.105Z,44.94
2022-08-07T00:33:08.523Z,46.75
2022-08-07T00:35:36.673Z,47.33
2022-08-07T00:38:03.381Z,47.12
2022-08-07T00:40:39.011Z,46.42
2022-08-07T00:43:10.022Z,45.69
2022-08-07T00:45:37.097Z,46.17
2022-08-07T00:48:07.822Z,46.73
2022-08-07T00:50:43.894Z,47.65
2022-08-07T00:53:17.322Z,46.87
2022-08-07T00:56:02.330Z,45.39
2022-08-07T00:58:30.241Z,46.36
2022-08-07T01:00:56.717Z,46.34
2022-08-07T01:03:54.718Z,44.83
2022-08-07T01:06:10.365Z,44.97
2022-08-07T01:08:38.919Z,47.33
2022-08-07T01:12:04.244Z,46.06
2022-08-07T01:13:56.551Z,45.19
2022-08-07T01:16:30.502Z,45.96
2022-08-07T01:18:57.194Z,45.26
2022-08-07T01:21:26.034Z,45.34
2022-08-07T01:23:53.447Z,46.26
2022-08-07T01:26:20.334Z,46.81
2022-08-07T01:28:48.357Z,46.96
2022-08-07T01:31:15.485Z,46.41
2022-08-07T01:33:55.119Z,47.01
2022-08-07T01:36:33.478Z,45.76
2022-08-07T01:39:09.416Z,44.74
2022-08-07T01:41:38.440Z,45.50
2022-08-07T01:44:05.010Z,44.59
2022-08-07T01:46:31.442Z,45.39
2022-08-07T01:48:59.840Z,44.43
2022-08-07T01:52:01.546Z,44.74
2022-08-07T01:54:19.343Z,44.36
2022-08-07T01:56:59.661Z,43.57
2022-08-07T01:59:31.091Z,44.35
2022-08-07T02:01:59.801Z,43.83
2022-08-07T02:04:30.390Z,45.68
2022-08-07T02:06:56.876Z,46.51
2022-08-07T02:09:52.258Z,45.30
2022-08-07T02:12:10.214Z,44.64
2022-08-07T02:14:44.520Z,44.12
2022-08-07T02:17:24.805Z,44.23
2022-08-07T02:20:06.688Z,44.66
2022-08-07T02:22:41.009Z,43.36
2022-08-07T02:25:17.163Z,44.83
2022-08-07T02:27:44.223Z,43.98
2022-08-07T02:30:18.823Z,45.25
2022-08-07T02:33:00.723Z,43.41
2022-08-07T02:36:28.289Z,42.18
2022-08-07T02:38:22.710Z,43.23
2022-08-07T02:40:56.012Z,45.01
2022-08-07T02:43:22.761Z,45.41
2022-08-07T02:45:59.177Z,44.69
2022-08-07T02:48:28.312Z,46.41
2022-08-07T02:50:55.289Z,44.23
2022-08-07T02:53:22.572Z,46.97
2022-08-07T02:56:04.340Z,44.92
2022-08-07T02:58:33.268Z,44.32
2022-08-07T03:03:51.000Z,44.04
2022-08-07T03:06:25.529Z,43.76
2022-08-07T03:08:53.042Z,44.30
2022-08-07T03:11:19.658Z,44.24
2022-08-07T03:13:51.809Z,42.71
2022-08-07T03:16:27.851Z,44.33
2022-08-07T03:18:54.615Z,46.67
2022-08-07T03:21:21.693Z,44.68
2022-08-07T03:24:18.302Z,44.36
2022-08-07T03:26:35.903Z,44.63
2022-08-07T03:29:11.186Z,44.23
2022-08-07T03:31:43.578Z,44.04
2022-08-07T03:34:18.827Z,42.06
2022-08-07T03:36:49.213Z,44.41
2022-08-07T03:39:16.045Z,44.91
2022-08-07T03:41:47.656Z,43.57
2022-08-07T03:44:21.792Z,44.15
2022-08-07T03:47:13.693Z,44.21
2022-08-07T03:49:41.074Z,43.83
2022-08-07T03:52:07.871Z,44.35
2022-08-07T03:54:54.454Z,46.87
2022-08-07T03:58:33.100Z,47.21
2022-08-07T04:00:10.594Z,47.32
2022-08-07T04:02:37.063Z,46.91
2022-08-07T04:05:07.909Z,46.13
2022-08-07T04:07:41.684Z,45.25
2022-08-07T04:10:15.589Z,44.68
2022-08-07T04:12:45.990Z,43.88
2022-08-07T04:15:13.721Z,45.37
2022-08-07T04:18:57.907Z,45.09
2022-08-07T04:20:27.996Z,46.88
2022-08-07T04:23:01.823Z,45.19
2022-08-07T04:25:39.087Z,46.17
2022-08-07T04:28:06.070Z,45.38
2022-08-07T04:30:43.818Z,46.99
2022-08-07T04:33:21.260Z,47.70
2022-08-07T04:35:50.399Z,47.24
2022-08-07T04:38:17.735Z,45.35
2022-08-07T04:40:52.295Z,46.73
2022-08-07T04:43:19.692Z,44.62
2022-08-07T04:46:00.658Z,45.68
2022-08-07T04:48:28.447Z,47.35
2022-08-07T04:50:55.504Z,45.40
2022-08-07T04:53:40.303Z,45.40
2022-08-07T04:58:16.148Z,45.09
2022-08-07T04:59:18.379Z,43.08
2022-08-07T05:04:31.821Z,44.61
2022-08-07T05:06:58.239Z,42.78
2022-08-07T05:09:28.094Z,44.45
2022-08-07T05:12:10.834Z,43.62
2022-08-07T05:14:56.172Z,44.30
2022-08-07T05:17:51.990Z,45.02
2022-08-07T05:20:16.589Z,45.28
2022-08-07T05:22:45.391Z,43.88
2022-08-07T05:25:25.844Z,42.38
2022-08-07T05:28:03.576Z,43.57
2022-08-07T05:30:47.131Z,42.69
2022-08-07T05:33:15.440Z,42.07
2022-08-07T05:35:44.556Z,44.62
2022-08-07T05:38:11.041Z,45.44
2022-08-07T05:40:37.707Z,44.32
2022-08-07T05:43:17.263Z,44.16
2022-08-07T05:45:46.771Z,43.04
2022-08-07T05:48:14.412Z,42.75
2022-08-07T05:50:42.966Z,42.63
2022-08-07T05:54:12.815Z,44.52
2022-08-07T05:56:02.129Z,43.91
2022-08-07T05:58:36.549Z,42.59
2022-08-07T06:01:05.134Z,45.06
2022-08-07T06:03:53.500Z,44.38
2022-08-07T06:06:19.582Z,45.82
2022-08-07T06:08:46.745Z,44.41
2022-08-07T06:11:13.267Z,45.16
2022-08-07T06:14:12.148Z,45.89
2022-08-07T06:16:29.119Z,44.37
2022-08-07T06:18:56.083Z,46.34
2022-08-07T06:22:15.415Z,46.47
2022-08-07T06:24:45.839Z,47.22
2022-08-07T06:26:55.446Z,47.47
2022-08-07T06:29:21.874Z,47.92
2022-08-07T06:31:51.285Z,47.36
2022-08-07T06:34:19.874Z,46.23
2022-08-07T06:36:47.539Z,45.83
2022-08-07T06:40:18.365Z,44.83
2022-08-07T06:42:05.126Z,43.65
2022-08-07T06:44:34.044Z,43.60
2022-08-07T06:47:12.172Z,44.37
2022-08-07T06:49:52.116Z,43.26
2022-08-07T06:52:32.000Z,42.53
2022-08-07T06:55:32.080Z,42.45
2022-08-07T06:57:50.941Z,42.02
2022-08-07T07:00:20.027Z,44.19
2022-08-07T07:02:53.259Z,43.84
2022-08-07T07:06:05.247Z,42.96
2022-08-07T07:08:12.319Z,42.83
2022-08-07T07:10:47.589Z,44.88
2022-08-07T07:13:43.635Z,43.08
2022-08-07T07:16:10.164Z,43.99
2022-08-07T07:18:47.943Z,42.08
2022-08-07T07:21:19.700Z,42.24
2022-08-07T07:24:08.487Z,42.96
2022-08-07T07:26:36.971Z,41.75
2022-08-07T07:29:57.527Z,42.71
2022-08-07T07:31:50.707Z,43.35
2022-08-07T07:34:17.150Z,44.55
2022-08-07T07:36:43.560Z,43.10
2022-08-07T07:39:14.689Z,43.41
2022-08-07T07:42:02.043Z,45.18
2022-08-07T07:44:27.754Z,44.20
2022-08-07T07:46:59.455Z,43.90
2022-08-07T07:50:35.337Z,44.05
2022-08-07T07:52:26.747Z,44.43
2022-08-07T07:54:54.362Z,44.30
2022-08-07T07:57:21.073Z,43.11
2022-08-07T08:00:07.413Z,43.33
2022-08-07T08:02:35.896Z,41.36
2022-08-07T08:05:02.336Z,42.35
2022-08-07T08:07:35.767Z,41.65
2022-08-07T08:10:08.992Z,40.68
2022-08-07T08:12:52.303Z,40.14
2022-08-07T08:15:25.549Z,41.73
2022-08-07T08:17:57.936Z,41.46
2022-08-07T08:20:31.826Z,42.45
2022-08-07T08:22:58.834Z,41.88
2022-08-07T08:25:42.027Z,42.36
2022-08-07T08:28:09.563Z,41.35
2022-08-07T08:30:37.527Z,39.56
2022-08-07T08:33:16.057Z,43.36
2022-08-07T08:35:49.679Z,40.79
2022-08-07T08:38:17.095Z,41.64
2022-08-07T08:40:43.819Z,42.08
2022-08-07T08:43:13.357Z,40.48
2022-08-07T08:45:59.028Z,40.93
2022-08-07T08:48:28.509Z,41.93
2022-08-07T08:50:59.136Z,41.26
2022-08-07T08:53:30.707Z,39.89
2022-08-07T08:55:58.993Z,42.44
2022-08-07T08:58:28.963Z,40.57
2022-08-07T09:00:56.454Z,40.44
2022-08-07T09:05:50.274Z,41.06
2022-08-07T09:08:24.249Z,40.60
2022-08-07T09:10:55.475Z,40.80
2022-08-07T09:13:36.998Z,40.51
2022-08-07T09:16:23.679Z,40.63
2022-08-07T09:18:58.275Z,39.57
2022-08-07T09:21:33.921Z,41.30
2022-08-07T09:24:32.970Z,40.51
2022-08-07T09:26:58.606Z,38.80
2022-08-07T09:30:03.990Z,39.15
2022-08-07T09:32:18.847Z,41.66
2022-08-07T09:34:53.936Z,40.80
2022-08-07T09:37:20.878Z,42.16
2022-08-07T09:40:07.297Z,42.13
2022-08-07T09:42:35.337Z,42.85
2022-08-07T09:46:11.264Z,43.33
2022-08-07T09:47:58.991Z,42.99
2022-08-07T09:50:30.310Z,41.19
2022-08-07T09:52:56.919Z,41.77
2022-08-07T09:55:29.713Z,40.30
2022-08-07T09:58:09.809Z,40.56
2022-08-07T10:00:38.053Z,40.57
2022-08-07T10:03:08.423Z,39.06
2022-08-07T10:06:00.282Z,38.69
2022-08-07T10:08:29.213Z,38.48
2022-08-07T10:11:59.904Z,39.15
2022-08-07T10:14:00.552Z,37.67
2022-08-07T10:16:28.835Z,39.27
2022-08-07T10:18:55.419Z,38.42
2022-08-07T10:21:50.597Z,37.06
2022-08-07T10:24:09.957Z,37.79
2022-08-07T10:26:36.530Z,38.27
2022-08-07T10:29:03.003Z,37.91
2022-08-07T10:31:31.390Z,37.31
2022-08-07T10:34:05.572Z,36.06
2022-08-07T10:36:40.785Z,35.05
2022-08-07T10:39:07.551Z,36.71
2022-08-07T10:41:51.587Z,35.59
2022-08-07T10:44:33.836Z,37.27
2022-08-07T10:47:05.804Z,36.82
2022-08-07T10:49:45.317Z,37.34
2022-08-07T10:52:17.612Z,38.35
2022-08-07T10:54:53.224Z,38.71
2022-08-07T10:57:34.554Z,37.40
2022-08-07T11:00:01.951Z,36.89
2022-08-07T11:02:33.038Z,36.99
2022-08-07T11:05:01.710Z,36.51
2022-08-07T11:07:59.044Z,36.85
2022-08-07T11:10:27.355Z,36.89
2022-08-07T11:13:02.259Z,36.82
2022-08-07T11:15:31.842Z,37.76
2022-08-07T11:18:03.354Z,37.28
2022-08-07T11:20:32.919Z,38.16
2022-08-07T11:22:59.624Z,38.17
2022-08-07T11:25:28.353Z,38.86
2022-08-07T11:28:02.664Z,38.10
2022-08-07T11:30:41.352Z,36.64
2022-08-07T11:33:14.269Z,36.99
2022-08-07T11:35:59.831Z,36.58
2022-08-07T11:38:28.168Z,36.13
2022-08-07T11:40:55.062Z,35.67
2022-08-07T11:43:41.201Z,34.62
2022-08-07T11:46:09.287Z,33.67
2022-08-07T11:48:36.257Z,33.74
2022-08-07T11:51:04.030Z,33.04
2022-08-07T11:53:35.911Z,33.51
2022-08-07T11:56:25.317Z,35.34
2022-08-07T11:58:49.666Z,35.78
2022-08-07T12:01:20.319Z,33.81
2022-08-07T12:03:51.185Z,34.35
2022-08-07T12:06:39.808Z,35.29
2022-08-07T12:09:05.355Z,35.63
2022-08-07T12:11:34.091Z,34.35
2022-08-07T12:14:09.807Z,33.68
2022-08-07T12:16:38.019Z,34.29
2022-08-07T12:19:06.222Z,34.21
2022-08-07T12:21:55.599Z,33.86
2022-08-07T12:24:37.359Z,33.56
2022-08-07T12:27:13.296Z,33.96
2022-08-07T12:29:43.176Z,33.40
2022-08-07T12:32:13.105Z,35.92
2022-08-07T12:34:39.807Z,33.95
2022-08-07T12:37:16.463Z,33.83
2022-08-07T12:39:57.525Z,32.66
2022-08-07T12:42:28.047Z,31.70
2022-08-07T12:44:55.143Z,33.69
2022-08-07T12:47:27.150Z,33.32
2022-08-07T12:50:04.672Z,31.93
2022-08-07T12:52:34.157Z,32.21
2022-08-07T12:55:05.191Z,32.99
2022-08-07T12:58:01.238Z,33.27
2022-08-07T13:00:33.021Z,33.32
2022-08-07T13:03:07.104Z,32.85
2022-08-07T13:06:04.013Z,32.00
2022-08-07T13:08:20.809Z,31.63
2022-08-07T13:10:51.962Z,31.12
2022-08-07T13:13:47.072Z,31.25
2022-08-07T13:16:06.588Z,30.81
2022-08-07T13:18:34.214Z,30.38
2022-08-07T13:21:00.775Z,30.11
2022-08-07T13:24:01.195Z,29.49
2022-08-07T13:26:25.593Z,30.19
2022-08-07T13:28:57.952Z,30.08
2022-08-07T13:31:25.116Z,30.62
2022-08-07T13:34:30.970Z,31.04
2022-08-07T13:36:45.654Z,29.78
2022-08-07T13:39:28.249Z,29.60
2022-08-07T13:42:01.356Z,29.62
2022-08-07T13:44:34.651Z,30.10
2022-08-07T13:47:04.818Z,30.22
2022-08-07T13:50:32.657Z,32.51
2022-08-07T13:52:35.056Z,31.56
2022-08-07T13:55:04.832Z,30.88
2022-08-07T13:57:38.456Z,31.65
2022-08-07T14:00:05.318Z,32.33
2022-08-07T14:02:39.585Z,32.70
2022-08-07T14:08:06.118Z,32.32
2022-08-07T14:10:34.640Z,31.30
2022-08-07T14:13:09.157Z,30.94
2022-08-07T14:15:36.057Z,30.34
2022-08-07T14:18:15.989Z,29.12
2022-08-07T14:20:55.022Z,31.16
2022-08-07T14:23:31.401Z,30.74
2022-08-07T14:26:08.433Z,32.04
2022-08-07T14:28:57.266Z,34.39
2022-08-07T14:31:21.572Z,35.01
2022-08-07T14:33:50.199Z,32.43
2022-08-07T14:36:16.701Z,31.58
2022-08-07T14:38:50.657Z,30.68
2022-08-07T14:41:17.175Z,29.97
2022-08-07T14:44:08.070Z,32.40
2022-08-07T14:46:51.553Z,31.99
2022-08-07T14:49:58.329Z,30.91
2022-08-07T14:52:10.533Z,29.88
2022-08-07T14:54:42.015Z,30.66
2022-08-07T14:57:09.345Z,29.96
2022-08-07T15:00:05.751Z,31.24
2022-08-07T15:05:19.988Z,34.62
2022-08-07T15:07:52.305Z,34.68
2022-08-07T15:10:19.637Z,34.80
2022-08-07T15:12:46.175Z,34.83
2022-08-07T15:15:22.705Z,35.25
2022-08-07T15:17:55.309Z,35.21
2022-08-07T15:23:20.424Z,36.43
2022-08-07T15:25:50.027Z,33.94
2022-08-07T15:28:34.638Z,35.97
2022-08-07T15:31:06.505Z,36.63
2022-08-07T15:33:34.005Z,36.52
2022-08-07T15:38:58.729Z,37.10
2022-08-07T15:44:12.876Z,36.27
2022-08-07T15:46:48.562Z,35.89
2022-08-07T15:49:19.079Z,35.05
2022-08-07T15:54:24.419Z,36.42
2022-08-07T15:56:52.884Z,38.17
2022-08-07T15:59:19.339Z,38.14
2022-08-07T16:01:46.044Z,37.92
2022-08-07T16:04:28.999Z,36.85
2022-08-07T16:06:58.647Z,36.17
2022-08-07T16:09:40.971Z,37.56
2022-08-07T16:12:12.219Z,37.82
2022-08-07T16:14:38.808Z,37.50
2022-08-07T16:17:15.095Z,37.78
2022-08-07T16:19:58.511Z,37.04
2022-08-07T16:22:33.640Z,38.37
2022-08-07T16:25:02.945Z,38.03
2022-08-07T16:27:40.033Z,37.02
2022-08-07T16:30:29.732Z,37.00
2022-08-07T16:32:54.939Z,36.27
2022-08-07T16:35:50.351Z,35.75
2022-08-07T16:38:09.368Z,36.25
2022-08-07T16:40:37.837Z,36.12
2022-08-07T16:43:24.100Z,35.07
2022-08-07T16:47:05.538Z,33.94
2022-08-07T16:50:20.518Z,34.87
2022-08-07T16:51:54.680Z,38.39
2022-08-07T16:54:32.573Z,36.25
2022-08-07T16:56:59.706Z,36.23
2022-08-07T16:59:26.071Z,36.59
2022-08-07T17:02:12.687Z,36.18
2022-08-07T17:04:57.989Z,37.45
2022-08-07T17:07:28.464Z,36.40
2022-08-07T17:10:32.596Z,36.21
2022-08-07T17:13:00.922Z,36.25
2022-08-07T17:15:44.684Z,36.66
2022-08-07T17:18:14.410Z,35.01
2022-08-07T17:20:41.237Z,34.29
2022-08-07T17:23:12.978Z,35.51
2022-08-07T17:25:51.252Z,35.95
2022-08-07T17:28:19.751Z,35.73
2022-08-07T17:30:57.495Z,35.71
2022-08-07T17:33:39.261Z,36.66
2022-08-07T17:36:11.996Z,37.34
2022-08-07T17:38:40.211Z,36.47
2022-08-07T17:42:03.009Z,36.75
2022-08-07T17:44:02.970Z,36.67
2022-08-07T17:46:34.429Z,37.11
2022-08-07T17:49:01.112Z,36.21
2022-08-07T17:52:00.110Z,36.00
2022-08-07T17:54:29.801Z,35.69
2022-08-07T17:57:18.684Z,36.49
2022-08-07T17:59:46.081Z,38.16
2022-08-07T18:02:17.446Z,36.44
2022-08-07T18:04:50.065Z,36.12
2022-08-07T18:07:23.489Z,35.83
2022-08-07T18:10:07.177Z,35.59
2022-08-07T18:12:36.956Z,34.83
2022-08-07T18:15:08.807Z,35.06
2022-08-07T18:18:45.764Z,34.54
2022-08-07T18:21:06.440Z,34.89
2022-08-07T18:23:42.747Z,35.17
2022-08-07T18:26:01.180Z,35.88
2022-08-07T18:28:35.597Z,36.29
2022-08-07T18:31:02.848Z,37.41
2022-08-07T18:33:29.531Z,38.00
2022-08-07T18:35:57.428Z,38.38
2022-08-07T18:38:55.183Z,36.77
2022-08-07T18:41:16.821Z,37.61
2022-08-07T18:43:48.989Z,37.48
2022-08-07T18:46:26.900Z,37.75
2022-08-07T18:50:19.686Z,38.07
2022-08-07T18:52:35.222Z,37.45
2022-08-07T18:54:31.449Z,38.14
2022-08-07T18:57:30.499Z,38.08
2022-08-07T18:59:58.639Z,37.25
2022-08-07T19:02:36.638Z,38.52
2022-08-07T19:05:14.897Z,39.05
2022-08-07T19:07:52.872Z,41.25
2022-08-07T19:10:23.986Z,40.93
2022-08-07T19:12:59.416Z,40.83
2022-08-07T19:16:03.055Z,39.96
2022-08-07T19:18:34.141Z,39.39
2022-08-07T19:21:09.603Z,39.71
2022-08-07T19:23:57.310Z,39.67
2022-08-07T19:26:28.704Z,39.58
2022-08-07T19:30:58.578Z,39.62
2022-08-07T19:32:07.759Z,38.76
2022-08-07T19:34:32.579Z,39.66
2022-08-07T19:37:09.909Z,38.81
2022-08-07T19:39:57.881Z,39.43
2022-08-07T19:42:30.243Z,39.48
2022-08-07T19:44:58.973Z,39.60
2022-08-07T19:47:27.848Z,39.48
2022-08-07T19:50:02.820Z,39.79
2022-08-07T19:52:30.817Z,39.23
2022-08-07T19:54:59.850Z,39.20
2022-08-07T19:58:01.511Z,39.63
2022-08-07T20:00:28.009Z,39.25
2022-08-07T20:02:55.677Z,40.50
2022-08-07T20:05:22.827Z,39.25
2022-08-07T20:07:50.897Z,39.72
2022-08-07T20:10:38.190Z,38.15
2022-08-07T20:13:06.126Z,37.69
2022-08-07T20:15:37.235Z,37.70
2022-08-07T20:18:04.398Z,36.93
2022-08-07T20:20:31.690Z,35.89
2022-08-07T20:22:59.395Z,36.57
2022-08-07T20:25:28.346Z,37.59
2022-08-07T20:28:03.371Z,37.67
2022-08-07T20:30:34.898Z,37.44
2022-08-07T20:33:01.657Z,36.62
2022-08-07T20:35:28.510Z,37.57
2022-08-07T20:37:58.636Z,37.82
2022-08-07T20:40:32.888Z,38.82
2022-08-07T20:43:01.083Z,38.73
2022-08-07T20:45:33.572Z,38.18
2022-08-07T20:48:28.946Z,40.06
2022-08-07T20:50:58.395Z,39.39
2022-08-07T20:54:03.244Z,38.70
2022-08-07T20:56:13.360Z,39.36
2022-08-07T20:58:42.690Z,40.56
2022-08-07T21:01:19.737Z,39.58
2022-08-07T21:04:13.121Z,40.24
2022-08-07T21:06:35.518Z,38.99
2022-08-07T21:09:02.255Z,37.66
2022-08-07T21:11:40.049Z,38.90
2022-08-07T21:14:31.674Z,40.33
2022-08-07T21:18:00.706Z,40.93
2022-08-07T21:19:51.406Z,39.93
2022-08-07T21:22:28.639Z,40.04
2022-08-07T21:24:55.408Z,39.45
2022-08-07T21:27:22.480Z,40.37
2022-08-07T21:29:53.093Z,39.75
2022-08-07T21:32:46.701Z,39.04
2022-08-07T21:35:11.305Z,37.27
2022-08-07T21:37:57.924Z,37.74
2022-08-07T21:40:24.644Z,39.08
2022-08-07T21:42:52.968Z,37.94
2022-08-07T21:46:04.872Z,38.00
2022-08-07T21:48:06.599Z,37.58
2022-08-07T21:50:53.062Z,38.21
2022-08-07T21:53:20.255Z,37.96
2022-08-07T21:55:49.122Z,37.95
2022-08-07T21:58:30.558Z,38.81
2022-08-07T22:00:59.717Z,38.16
2022-08-07T22:03:30.605Z,38.44
2022-08-07T22:05:58.292Z,38.49
2022-08-07T22:08:28.200Z,38.70
2022-08-07T22:10:55.021Z,37.92
2022-08-07T22:13:24.651Z,37.00
2022-08-07T22:16:40.142Z,37.62
2022-08-07T22:18:54.934Z,37.16
2022-08-07T22:21:21.594Z,36.90
2022-08-07T22:23:48.208Z,37.44
2022-08-07T22:26:14.641Z,37.63
2022-08-07T22:28:42.735Z,38.06
2022-08-07T22:31:45.270Z,37.94
2022-08-07T22:34:05.844Z,37.79
2022-08-07T22:36:39.366Z,37.15
2022-08-07T22:39:07.560Z,36.72
2022-08-07T22:42:04.201Z,36.82
2022-08-07T22:44:20.809Z,36.27
2022-08-07T22:47:04.051Z,36.75
2022-08-07T22:49:37.917Z,37.01
2022-08-07T22:52:04.507Z,36.63
2022-08-07T22:54:30.896Z,36.66
2022-08-07T22:57:00.730Z,37.31
2022-08-07T22:59:27.283Z,37.55
2022-08-07T23:02:00.504Z,37.83
2022-08-07T23:04:29.904Z,38.26
2022-08-07T23:06:57.392Z,37.74
2022-08-07T23:10:04.160Z,37.46
2022-08-07T23:12:10.854Z,38.39
2022-08-07T23:14:48.493Z,38.87
2022-08-07T23:17:15.905Z,38.76
2022-08-07T23:19:51.438Z,38.38
2022-08-07T23:22:19.062Z,38.67
2022-08-07T23:24:47.709Z,39.56
2022-08-07T23:27:14.338Z,39.40
2022-08-07T23:29:43.494Z,38.21
2022-08-07T23:34:21.309Z,38.39
2022-08-07T23:35:16.716Z,39.35
2022-08-07T23:38:00.727Z,39.54
2022-08-07T23:40:28.585Z,39.76
2022-08-07T23:42:54.984Z,38.81
2022-08-07T23:45:33.324Z,40.87
2022-08-07T23:48:08.442Z,40.93
2022-08-07T23:50:36.680Z,41.06
2022-08-07T23:53:06.092Z,40.80
2022-08-07T23:55:53.197Z,39.63
2022-08-07T23:58:24.245Z,39.39
